createdAt,value
2022-10-23T03:00:21.661Z,3.37
2022-10-23T03:02:56.107Z,3.15
2022-10-23T03:05:29.160Z,3.35
2022-10-23T03:07:57.591Z,3.42
2022-10-23T03:10:25.920Z,3.05
2022-10-23T03:12:54.151Z,3.22
2022-10-23T03:15:23.753Z,3.10
2022-10-23T03:17:52.965Z,3.08
2022-10-23T03:20:21.187Z,3.40
2022-10-23T03:22:49.115Z,3.28
2022-10-23T03:25:17.085Z,2.85
2022-10-23T03:27:46.586Z,3.13
2022-10-23T03:30:17.265Z,3.22
2022-10-23T03:32:46.598Z,3.70
2022-10-23T03:35:14.566Z,3.40
2022-10-23T03:37:42.776Z,4.07
2022-10-23T03:40:12.354Z,4.28
2022-10-23T03:42:40.550Z,3.92
2022-10-23T03:45:10.578Z,4.38
2022-10-23T03:47:41.413Z,4.45
2022-10-23T03:50:13.416Z,4.25
2022-10-23T03:52:41.953Z,4.40
2022-10-23T03:55:13.287Z,4.35
2022-10-23T03:57:41.145Z,4.18
2022-10-23T04:00:10.028Z,3.95
2022-10-23T04:02:48.783Z,3.85
2022-10-23T04:05:19.060Z,3.95
2022-10-23T04:07:55.437Z,3.53
2022-10-23T04:10:23.445Z,4.20
2022-10-23T04:12:51.906Z,4.13
2022-10-23T04:15:19.766Z,4.75
2022-10-23T04:17:47.788Z,4.53
2022-10-23T04:20:16.046Z,5.50
2022-10-23T04:22:45.758Z,5.20
2022-10-23T04:25:14.464Z,4.97
2022-10-23T04:27:42.794Z,5.20
2022-10-23T04:30:12.229Z,5.40
2022-10-23T04:32:40.607Z,4.93
2022-10-23T04:35:09.357Z,5.03
2022-10-23T04:37:37.247Z,5.10
2022-10-23T04:40:08.111Z,5.25
2022-10-23T04:42:37.630Z,4.60
2022-10-23T04:45:06.156Z,4.60
2022-10-23T04:47:34.907Z,4.40
2022-10-23T04:50:04.659Z,4.07
2022-10-23T04:52:55.528Z,4.32
2022-10-23T04:55:51.655Z,3.85
2022-10-23T04:58:28.634Z,3.97
2022-10-23T05:00:59.389Z,3.90
2022-10-23T05:03:27.958Z,3.83
2022-10-23T05:05:57.513Z,4.00
2022-10-23T05:08:45.603Z,3.53
2022-10-23T05:11:30.944Z,3.55
2022-10-23T05:13:59.228Z,3.92
2022-10-23T05:16:38.110Z,3.95
2022-10-23T05:19:08.316Z,4.30
2022-10-23T05:21:37.996Z,3.85
2022-10-23T05:24:08.028Z,3.88
2022-10-23T05:26:37.440Z,3.53
2022-10-23T05:29:08.620Z,3.30
2022-10-23T05:31:37.410Z,3.13
2022-10-23T05:34:15.374Z,3.40
2022-10-23T05:36:45.867Z,4.25
2022-10-23T05:39:15.643Z,3.90
2022-10-23T05:41:48.373Z,4.45
2022-10-23T05:44:21.836Z,4.28
2022-10-23T05:47:09.979Z,4.35
2022-10-23T05:49:56.494Z,6.97
2022-10-23T05:52:47.774Z,5.90
2022-10-23T05:55:30.976Z,4.65
2022-10-23T05:58:26.393Z,4.60
2022-10-23T06:01:05.371Z,4.47
2022-10-23T06:03:54.059Z,4.70
2022-10-23T06:06:27.386Z,4.78
2022-10-23T06:08:55.757Z,5.18
2022-10-23T06:11:24.118Z,4.20
2022-10-23T06:14:04.883Z,3.90
2022-10-23T06:16:32.888Z,4.30
2022-10-23T06:19:01.104Z,3.53
2022-10-23T06:21:28.998Z,3.85
2022-10-23T06:23:57.434Z,3.78
2022-10-23T06:26:37.355Z,4.18
2022-10-23T06:29:18.323Z,6.68
2022-10-23T06:31:46.222Z,5.35
2022-10-23T06:34:14.531Z,4.10
2022-10-23T06:36:42.645Z,3.45
2022-10-23T06:39:31.968Z,3.88
2022-10-23T06:42:08.199Z,4.93
2022-10-23T06:44:57.447Z,5.05
2022-10-23T06:47:45.467Z,4.75
2022-10-23T06:50:38.524Z,3.90
2022-10-23T06:53:12.572Z,3.92
2022-10-23T06:55:48.984Z,5.03
2022-10-23T06:58:19.745Z,4.50
2022-10-23T07:01:13.862Z,5.15
2022-10-23T07:03:43.983Z,4.30
2022-10-23T07:06:12.921Z,4.20
2022-10-23T07:08:40.972Z,4.60
2022-10-23T07:11:28.863Z,5.57
2022-10-23T07:13:58.219Z,5.55
2022-10-23T07:16:28.140Z,4.57
2022-10-23T07:18:59.747Z,4.43
2022-10-23T07:21:28.146Z,4.25
2022-10-23T07:24:02.604Z,4.30
2022-10-23T07:26:32.842Z,4.50
2022-10-23T07:29:01.317Z,4.32
2022-10-23T07:31:30.789Z,4.93
2022-10-23T07:34:33.879Z,5.18
2022-10-23T07:37:20.582Z,5.20
2022-10-23T07:39:48.528Z,5.68
2022-10-23T07:42:16.430Z,5.40
2022-10-23T07:44:44.558Z,5.75
2022-10-23T07:47:14.265Z,5.80
2022-10-23T07:49:45.452Z,5.05
2022-10-23T07:52:13.782Z,5.57
2022-10-23T07:55:10.499Z,5.50
2022-10-23T07:57:42.316Z,5.20
2022-10-23T08:00:21.030Z,4.38
2022-10-23T08:02:58.869Z,7.93
2022-10-23T08:05:26.884Z,5.97
2022-10-23T08:07:59.872Z,5.93
2022-10-23T08:10:27.850Z,5.90
2022-10-23T08:12:55.773Z,5.13
2022-10-23T08:15:41.179Z,4.80
2022-10-23T08:18:22.852Z,4.93
2022-10-23T08:20:52.474Z,5.50
2022-10-23T08:23:20.897Z,5.47
2022-10-23T08:25:49.843Z,5.63
2022-10-23T08:28:19.107Z,5.60
2022-10-23T08:30:55.452Z,5.57
2022-10-23T08:33:25.878Z,5.10
2022-10-23T08:35:54.266Z,5.05
2022-10-23T08:38:29.958Z,5.15
2022-10-23T08:41:00.256Z,5.50
2022-10-23T08:43:47.771Z,5.40
2022-10-23T08:46:41.404Z,4.85
2022-10-23T08:49:47.318Z,5.07
2022-10-23T08:52:21.300Z,4.63
2022-10-23T08:54:58.808Z,5.10
2022-10-23T08:57:37.738Z,5.05
2022-10-23T09:00:15.587Z,4.85
2022-10-23T09:02:46.549Z,5.00
2022-10-23T09:05:18.795Z,4.72
2022-10-23T09:08:09.377Z,4.95
2022-10-23T09:10:57.180Z,4.47
2022-10-23T09:13:56.329Z,4.65
2022-10-23T09:16:44.228Z,5.40
2022-10-23T09:19:16.052Z,4.60
2022-10-23T09:21:46.705Z,4.50
2022-10-23T09:24:18.443Z,4.60
2022-10-23T09:26:49.681Z,4.63
2022-10-23T09:29:24.288Z,4.72
2022-10-23T09:31:53.663Z,5.47
2022-10-23T09:34:23.331Z,4.40
2022-10-23T09:39:30.648Z,3.72
2022-10-23T09:41:59.742Z,3.90
2022-10-23T09:44:29.718Z,4.10
2022-10-23T09:47:01.516Z,3.72
2022-10-23T09:49:31.428Z,3.58
2022-10-23T09:52:05.927Z,3.80
2022-10-23T09:54:36.673Z,3.67
2022-10-23T09:57:16.371Z,3.70
2022-10-23T09:59:44.678Z,3.58
2022-10-23T10:02:22.199Z,3.63
2022-10-23T10:05:23.349Z,3.25
2022-10-23T10:08:00.227Z,3.00
2022-10-23T10:10:35.713Z,3.20
2022-10-23T10:13:16.186Z,3.20
2022-10-23T10:15:51.527Z,3.40
2022-10-23T10:18:24.280Z,3.20
2022-10-23T10:21:15.154Z,3.15
2022-10-23T10:23:50.961Z,3.05
2022-10-23T10:26:33.250Z,2.88
2022-10-23T10:29:14.470Z,2.58
2022-10-23T10:31:53.131Z,2.97
2022-10-23T10:34:29.867Z,2.97
2022-10-23T10:37:02.846Z,2.80
2022-10-23T10:39:42.090Z,3.17
2022-10-23T10:42:38.207Z,3.33
2022-10-23T10:45:34.260Z,3.38
2022-10-23T10:48:20.001Z,2.90
2022-10-23T10:51:09.253Z,3.08
2022-10-23T10:54:00.906Z,3.20
2022-10-23T10:56:35.699Z,3.28
2022-10-23T10:59:12.280Z,3.55
2022-10-23T11:01:46.607Z,3.33
2022-10-23T11:04:23.271Z,3.97
2022-10-23T11:06:53.966Z,3.95
2022-10-23T11:09:25.258Z,3.42
2022-10-23T11:11:54.579Z,3.60
2022-10-23T11:14:24.180Z,3.70
2022-10-23T11:16:54.048Z,2.97
2022-10-23T11:19:25.903Z,3.05
2022-10-23T11:21:59.343Z,2.97
2022-10-23T11:24:58.225Z,3.00
2022-10-23T11:27:38.619Z,2.63
2022-10-23T11:30:29.545Z,2.83
2022-10-23T11:33:34.210Z,2.63
2022-10-23T11:36:15.456Z,2.60
2022-10-23T11:38:45.613Z,2.88
2022-10-23T11:41:25.570Z,2.97
2022-10-23T11:44:01.436Z,2.60
2022-10-23T11:46:33.987Z,3.03
2022-10-23T11:49:03.151Z,2.70
2022-10-23T11:51:33.737Z,3.13
2022-10-23T11:54:25.991Z,2.75
2022-10-23T11:57:04.176Z,2.90
2022-10-23T11:59:35.385Z,2.90
2022-10-23T12:02:05.469Z,3.05
2022-10-23T12:04:41.578Z,2.88
2022-10-23T12:07:22.195Z,2.80
2022-10-23T12:09:55.577Z,2.88
2022-10-23T12:12:33.959Z,2.85
2022-10-23T12:15:20.006Z,2.70
2022-10-23T12:17:49.098Z,2.63
2022-10-23T12:20:49.018Z,2.67
2022-10-23T12:23:53.467Z,2.90
2022-10-23T12:26:50.515Z,3.75
2022-10-23T12:29:32.576Z,2.83
2022-10-23T12:32:14.862Z,2.83
2022-10-23T12:34:54.853Z,2.90
2022-10-23T12:37:51.415Z,2.60
2022-10-23T12:40:19.305Z,2.80
2022-10-23T12:42:53.180Z,2.83
2022-10-23T12:45:24.778Z,2.70
2022-10-23T12:47:54.227Z,2.78
2022-10-23T12:50:23.905Z,3.10
2022-10-23T12:52:53.577Z,3.08
2022-10-23T12:55:22.245Z,3.08
2022-10-23T12:57:50.481Z,3.35
2022-10-23T13:00:20.959Z,3.40
2022-10-23T13:03:03.723Z,3.00
2022-10-23T13:05:33.023Z,3.17
2022-10-23T13:08:02.119Z,3.10
2022-10-23T13:10:43.767Z,2.63
2022-10-23T13:13:13.710Z,6.22
2022-10-23T13:15:43.459Z,3.08
2022-10-23T13:18:14.463Z,14.65
2022-10-23T13:20:44.268Z,3.70
2022-10-23T13:23:18.641Z,2.65
2022-10-23T13:25:55.484Z,2.60
2022-10-23T13:28:26.215Z,2.70
2022-10-23T13:31:06.571Z,2.40
2022-10-23T13:33:40.516Z,2.63
2022-10-23T13:36:23.731Z,2.60
2022-10-23T13:39:02.937Z,2.40
2022-10-23T13:41:35.829Z,2.25
2022-10-23T13:44:03.835Z,2.30
2022-10-23T13:46:31.767Z,2.40
2022-10-23T13:49:00.985Z,2.47
2022-10-23T13:51:30.848Z,2.78
2022-10-23T13:53:59.612Z,2.63
2022-10-23T13:56:29.113Z,3.53
2022-10-23T13:58:57.065Z,5.63
2022-10-23T14:01:28.709Z,4.88
2022-10-23T14:03:57.912Z,3.85
2022-10-23T14:06:27.395Z,2.90
2022-10-23T14:08:55.296Z,2.50
2022-10-23T14:11:23.705Z,2.40
2022-10-23T14:13:52.637Z,2.20
2022-10-23T14:16:21.726Z,2.50
2022-10-23T14:18:50.107Z,2.00
2022-10-23T14:21:20.942Z,2.10
2022-10-23T14:23:51.419Z,2.17
2022-10-23T14:26:22.799Z,2.10
2022-10-23T14:28:53.969Z,2.30
2022-10-23T14:31:22.872Z,2.30
2022-10-23T14:33:54.456Z,2.20
2022-10-23T14:36:22.922Z,2.20
2022-10-23T14:38:56.297Z,2.22
2022-10-23T14:41:25.227Z,2.45
2022-10-23T14:43:53.446Z,2.13
2022-10-23T14:46:24.725Z,2.42
2022-10-23T14:48:58.739Z,3.00
2022-10-23T14:51:31.027Z,2.78
2022-10-23T14:54:01.966Z,2.63
2022-10-23T14:56:31.977Z,2.92
2022-10-23T14:59:02.705Z,3.83
2022-10-23T15:01:31.255Z,4.30
2022-10-23T15:03:59.276Z,3.45
2022-10-23T15:06:27.442Z,3.20
2022-10-23T15:08:55.865Z,3.33
2022-10-23T15:11:26.139Z,3.70
2022-10-23T15:13:55.268Z,3.63
2022-10-23T15:16:24.294Z,3.95
2022-10-23T15:18:52.246Z,3.80
2022-10-23T15:21:20.756Z,3.45
2022-10-23T15:23:49.591Z,3.20
2022-10-23T15:26:22.486Z,3.08
2022-10-23T15:28:56.273Z,3.30
2022-10-23T15:31:46.527Z,2.85
2022-10-23T15:34:16.800Z,2.80
2022-10-23T15:36:46.811Z,2.78
2022-10-23T15:39:17.445Z,2.72
2022-10-23T15:41:45.671Z,2.85
2022-10-23T15:44:17.965Z,2.60
2022-10-23T15:46:45.894Z,2.58
2022-10-23T15:49:14.098Z,2.83
2022-10-23T15:51:42.989Z,2.85
2022-10-23T15:54:16.344Z,3.05
2022-10-23T15:56:44.583Z,2.97
2022-10-23T15:59:14.360Z,3.00
2022-10-23T16:01:43.143Z,3.33
2022-10-23T16:04:11.841Z,2.95
2022-10-23T16:06:39.860Z,3.10
2022-10-23T16:09:07.778Z,3.15
2022-10-23T16:11:38.088Z,3.35
2022-10-23T16:14:06.575Z,3.30
2022-10-23T16:16:36.020Z,2.92
2022-10-23T16:19:05.273Z,2.90
2022-10-23T16:21:36.182Z,2.90
2022-10-23T16:24:06.819Z,3.53
2022-10-23T16:26:36.134Z,3.75
2022-10-23T16:29:06.927Z,3.55
2022-10-23T16:31:36.466Z,3.30
2022-10-23T16:34:05.844Z,3.40
2022-10-23T16:36:34.594Z,3.80
2022-10-23T16:39:20.064Z,3.90
2022-10-23T16:42:07.035Z,4.25
2022-10-23T16:44:48.489Z,4.55
2022-10-23T16:47:17.724Z,6.57
2022-10-23T16:49:45.679Z,5.97
2022-10-23T16:52:13.551Z,6.05
2022-10-23T16:54:43.619Z,5.40
2022-10-23T16:57:11.467Z,5.95
2022-10-23T16:59:39.331Z,5.80
2022-10-23T17:02:07.854Z,4.72
2022-10-23T17:04:38.841Z,5.03
2022-10-23T17:07:13.002Z,4.70
2022-10-23T17:09:41.263Z,4.68
2022-10-23T17:12:17.069Z,5.63
2022-10-23T17:14:44.929Z,5.32
2022-10-23T17:17:13.528Z,5.78
2022-10-23T17:19:45.472Z,8.77
2022-10-23T17:22:14.939Z,8.75
2022-10-23T17:24:46.195Z,7.90
2022-10-23T17:27:16.802Z,7.65
2022-10-23T17:29:44.687Z,10.43
2022-10-23T17:32:14.050Z,10.15
2022-10-23T17:34:44.544Z,7.60
2022-10-23T17:37:13.218Z,6.43
2022-10-23T17:39:42.160Z,5.78
2022-10-23T17:42:11.377Z,4.70
2022-10-23T17:44:39.337Z,5.35
2022-10-23T17:47:07.211Z,4.30
2022-10-23T17:49:35.084Z,4.68
2022-10-23T17:52:04.560Z,3.72
2022-10-23T17:54:32.446Z,3.70
2022-10-23T17:57:01.403Z,3.90
2022-10-23T17:59:29.295Z,3.35
2022-10-23T18:01:59.952Z,3.78
2022-10-23T18:04:27.978Z,5.35
2022-10-23T18:06:55.851Z,4.10
2022-10-23T18:09:25.111Z,3.65
2022-10-23T18:11:53.257Z,3.72
2022-10-23T18:14:43.986Z,3.72
2022-10-23T18:17:11.921Z,3.65
2022-10-23T18:19:40.017Z,3.55
2022-10-23T18:22:07.963Z,3.45
2022-10-23T18:24:38.180Z,3.40
2022-10-23T18:27:06.948Z,3.33
2022-10-23T18:29:35.210Z,13.70
2022-10-23T18:32:29.726Z,8.23
2022-10-23T18:34:58.830Z,9.40
2022-10-23T18:37:28.862Z,8.98
2022-10-23T18:40:02.162Z,7.25
2022-10-23T18:42:30.419Z,4.47
2022-10-23T18:45:00.346Z,4.50
2022-10-23T18:47:28.369Z,3.95
2022-10-23T18:49:56.292Z,3.95
2022-10-23T18:52:25.271Z,4.10
2022-10-23T18:54:53.150Z,3.88
2022-10-23T18:57:22.354Z,4.45
2022-10-23T18:59:51.010Z,3.50
2022-10-23T19:02:19.072Z,3.80
2022-10-23T19:04:47.206Z,4.40
2022-10-23T19:07:20.554Z,4.40
2022-10-23T19:09:49.028Z,4.32
2022-10-23T19:12:17.923Z,4.55
2022-10-23T19:14:47.312Z,4.00
2022-10-23T19:17:19.441Z,4.07
2022-10-23T19:19:52.724Z,4.93
2022-10-23T19:22:21.921Z,4.43
2022-10-23T19:24:54.573Z,4.78
2022-10-23T19:27:22.685Z,4.80
2022-10-23T19:29:54.402Z,4.78
2022-10-23T19:32:31.576Z,5.13
2022-10-23T19:35:05.679Z,5.55
2022-10-23T19:37:33.696Z,5.82
2022-10-23T19:40:06.641Z,5.47
2022-10-23T19:42:34.998Z,9.32
2022-10-23T19:45:05.015Z,10.15
2022-10-23T19:47:33.121Z,7.72
2022-10-23T19:50:03.341Z,7.57
2022-10-23T19:52:31.347Z,6.05
2022-10-23T19:54:59.361Z,5.78
2022-10-23T19:57:27.562Z,5.00
2022-10-23T19:59:57.807Z,5.53
2022-10-23T20:02:27.422Z,4.88
2022-10-23T20:04:55.654Z,4.82
2022-10-23T20:07:23.614Z,4.55
2022-10-23T20:09:51.521Z,4.45
2022-10-23T20:12:19.425Z,4.38
2022-10-23T20:14:47.329Z,4.20
2022-10-23T20:17:15.222Z,4.80
2022-10-23T20:19:44.660Z,4.78
2022-10-23T20:22:12.816Z,4.20
2022-10-23T20:24:42.220Z,4.43
2022-10-23T20:27:10.955Z,4.03
2022-10-23T20:29:38.837Z,4.40
2022-10-23T20:32:07.569Z,4.50
2022-10-23T20:34:35.704Z,4.97
2022-10-23T20:37:05.069Z,4.88
2022-10-23T20:39:35.598Z,4.80
2022-10-23T20:42:04.116Z,5.03
2022-10-23T20:44:32.223Z,5.78
2022-10-23T20:47:01.364Z,5.97
2022-10-23T20:49:29.527Z,5.43
2022-10-23T20:51:57.914Z,5.47
2022-10-23T20:54:28.798Z,5.22
2022-10-23T20:56:58.735Z,5.75
2022-10-23T20:59:26.766Z,5.10
2022-10-23T21:01:57.094Z,5.28
2022-10-23T21:04:27.835Z,5.38
2022-10-23T21:07:10.389Z,5.50
2022-10-23T21:09:40.952Z,5.20
2022-10-23T21:12:10.001Z,5.47
2022-10-23T21:14:37.987Z,5.60
2022-10-23T21:17:08.261Z,6.05
2022-10-23T21:19:36.549Z,5.85
2022-10-23T21:22:04.458Z,5.72
2022-10-23T21:24:32.315Z,5.82
2022-10-23T21:27:01.547Z,5.45
2022-10-23T21:29:29.398Z,6.22
